sensor_id;sensor_type;location;lat;lon;timestamp;temperature;humidity
23156;DHT22;11746;50.876;4.246;2023-01-23T00:01:19;2.30;99.90
23156;DHT22;11746;50.876;4.246;2023-01-23T00:03:47;2.30;99.90
23156;DHT22;11746;50.876;4.246;2023-01-23T00:06:15;2.20;99.90
23156;DHT22;11746;50.876;4.246;2023-01-23T00:08:42;2.10;99.90
23156;DHT22;11746;50.876;4.246;2023-01-23T00:11:14;2.10;99.90
23156;DHT22;11746;50.876;4.246;2023-01-23T00:13:40;2.10;99.90
23156;DHT22;11746;50.876;4.246;2023-01-23T00:16:15;2.10;99.90
23156;DHT22;11746;50.876;4.246;2023-01-23T00:18:43;2.10;99.90
23156;DHT22;11746;50.876;4.246;2023-01-23T00:21:11;2.20;99.90
23156;DHT22;11746;50.876;4.246;2023-01-23T00:23:40;2.20;99.90
23156;DHT22;11746;50.876;4.246;2023-01-23T00:26:08;2.20;99.90
23156;DHT22;11746;50.876;4.246;2023-01-23T00:28:35;2.20;99.90
23156;DHT22;11746;50.876;4.246;2023-01-23T00:31:08;2.30;99.90
23156;DHT22;11746;50.876;4.246;2023-01-23T00:33:34;2.30;99.90
23156;DHT22;11746;50.876;4.246;2023-01-23T00:36:04;2.40;99.90
23156;DHT22;11746;50.876;4.246;2023-01-23T00:38:33;2.40;99.90
23156;DHT22;11746;50.876;4.246;2023-01-23T00:40:59;2.40;99.90
23156;DHT22;11746;50.876;4.246;2023-01-23T00:43:29;2.50;99.90
23156;DHT22;11746;50.876;4.246;2023-01-23T00:45:56;2.60;99.90
23156;DHT22;11746;50.876;4.246;2023-01-23T00:48:26;2.60;99.90
23156;DHT22;11746;50.876;4.246;2023-01-23T00:50:53;2.60;99.90
23156;DHT22;11746;50.876;4.246;2023-01-23T00:53:19;2.50;99.90
23156;DHT22;11746;50.876;4.246;2023-01-23T00:55:44;2.50;99.90
23156;DHT22;11746;50.876;4.246;2023-01-23T00:58:10;2.50;99.90
23156;DHT22;11746;50.876;4.246;2023-01-23T01:00:38;2.50;99.90
23156;DHT22;11746;50.876;4.246;2023-01-23T01:03:05;2.60;99.90
23156;DHT22;11746;50.876;4.246;2023-01-23T01:05:32;2.50;99.90
23156;DHT22;11746;50.876;4.246;2023-01-23T01:08:00;2.60;99.90
23156;DHT22;11746;50.876;4.246;2023-01-23T01:10:29;2.60;99.90
23156;DHT22;11746;50.876;4.246;2023-01-23T01:12:56;2.60;99.90
23156;DHT22;11746;50.876;4.246;2023-01-23T01:15:21;2.60;99.90
23156;DHT22;11746;50.876;4.246;2023-01-23T01:17:48;2.60;99.90
23156;DHT22;11746;50.876;4.246;2023-01-23T01:20:14;2.60;99.90
23156;DHT22;11746;50.876;4.246;2023-01-23T01:22:45;2.70;99.90
23156;DHT22;11746;50.876;4.246;2023-01-23T01:25:10;2.70;99.90
23156;DHT22;11746;50.876;4.246;2023-01-23T01:27:36;2.80;99.90
23156;DHT22;11746;50.876;4.246;2023-01-23T01:30:03;2.70;99.90
23156;DHT22;11746;50.876;4.246;2023-01-23T01:32:35;2.70;99.90
23156;DHT22;11746;50.876;4.246;2023-01-23T01:35:02;2.60;99.90
23156;DHT22;11746;50.876;4.246;2023-01-23T01:37:34;2.60;99.90
23156;DHT22;11746;50.876;4.246;2023-01-23T01:40:02;2.70;99.90
23156;DHT22;11746;50.876;4.246;2023-01-23T01:42:28;2.80;99.90
23156;DHT22;11746;50.876;4.246;2023-01-23T01:45:00;2.70;99.90
23156;DHT22;11746;50.876;4.246;2023-01-23T01:47:31;2.70;99.90
23156;DHT22;11746;50.876;4.246;2023-01-23T01:50:01;2.70;99.90
23156;DHT22;11746;50.876;4.246;2023-01-23T01:52:28;2.70;99.90
23156;DHT22;11746;50.876;4.246;2023-01-23T01:55:02;2.70;99.90
23156;DHT22;11746;50.876;4.246;2023-01-23T01:57:32;2.70;99.90
23156;DHT22;11746;50.876;4.246;2023-01-23T02:02:41;2.80;99.90
23156;DHT22;11746;50.876;4.246;2023-01-23T02:05:20;2.80;99.90
23156;DHT22;11746;50.876;4.246;2023-01-23T02:08:00;2.80;99.90
23156;DHT22;11746;50.876;4.246;2023-01-23T02:10:28;2.80;99.90
23156;DHT22;11746;50.876;4.246;2023-01-23T02:12:54;2.80;99.90
23156;DHT22;11746;50.876;4.246;2023-01-23T02:15:21;2.80;99.90
23156;DHT22;11746;50.876;4.246;2023-01-23T02:17:54;2.70;99.90
23156;DHT22;11746;50.876;4.246;2023-01-23T02:20:26;2.80;99.90
23156;DHT22;11746;50.876;4.246;2023-01-23T02:26:02;2.70;99.90
23156;DHT22;11746;50.876;4.246;2023-01-23T02:28:50;2.70;99.90
23156;DHT22;11746;50.876;4.246;2023-01-23T02:31:21;2.80;99.90
23156;DHT22;11746;50.876;4.246;2023-01-23T02:33:53;2.80;99.90
23156;DHT22;11746;50.876;4.246;2023-01-23T02:36:22;2.80;99.90
23156;DHT22;11746;50.876;4.246;2023-01-23T02:39:01;2.70;99.90
23156;DHT22;11746;50.876;4.246;2023-01-23T02:41:30;2.70;99.90
23156;DHT22;11746;50.876;4.246;2023-01-23T02:43:59;2.70;99.90
23156;DHT22;11746;50.876;4.246;2023-01-23T02:46:26;2.80;99.90
23156;DHT22;11746;50.876;4.246;2023-01-23T02:48:53;2.80;99.90
23156;DHT22;11746;50.876;4.246;2023-01-23T02:51:20;2.80;99.90
23156;DHT22;11746;50.876;4.246;2023-01-23T02:53:47;2.80;99.90
23156;DHT22;11746;50.876;4.246;2023-01-23T02:56:15;2.80;99.90
23156;DHT22;11746;50.876;4.246;2023-01-23T02:58:44;2.80;99.90
23156;DHT22;11746;50.876;4.246;2023-01-23T03:01:28;2.70;99.90
23156;DHT22;11746;50.876;4.246;2023-01-23T03:03:54;2.80;99.90
23156;DHT22;11746;50.876;4.246;2023-01-23T03:06:27;2.80;99.90
23156;DHT22;11746;50.876;4.246;2023-01-23T03:08:54;2.70;99.90
23156;DHT22;11746;50.876;4.246;2023-01-23T03:11:20;2.70;99.90
23156;DHT22;11746;50.876;4.246;2023-01-23T03:13:48;2.80;99.90
23156;DHT22;11746;50.876;4.246;2023-01-23T03:16:14;2.70;99.90
23156;DHT22;11746;50.876;4.246;2023-01-23T03:18:40;2.80;99.90
23156;DHT22;11746;50.876;4.246;2023-01-23T03:21:09;2.70;99.90
23156;DHT22;11746;50.876;4.246;2023-01-23T03:23:38;2.70;99.90
23156;DHT22;11746;50.876;4.246;2023-01-23T03:26:05;2.80;99.90
23156;DHT22;11746;50.876;4.246;2023-01-23T03:28:31;2.80;99.90
23156;DHT22;11746;50.876;4.246;2023-01-23T03:31:16;2.70;99.90
23156;DHT22;11746;50.876;4.246;2023-01-23T03:33:45;2.80;99.90
23156;DHT22;11746;50.876;4.246;2023-01-23T03:36:13;2.80;99.90
23156;DHT22;11746;50.876;4.246;2023-01-23T03:38:40;2.70;99.90
23156;DHT22;11746;50.876;4.246;2023-01-23T03:41:28;2.60;99.90
23156;DHT22;11746;50.876;4.246;2023-01-23T03:43:55;2.70;99.90
23156;DHT22;11746;50.876;4.246;2023-01-23T03:46:22;2.60;99.90
23156;DHT22;11746;50.876;4.246;2023-01-23T03:48:50;2.60;99.90
23156;DHT22;11746;50.876;4.246;2023-01-23T03:51:16;2.60;99.90
23156;DHT22;11746;50.876;4.246;2023-01-23T03:53:44;2.50;99.90
23156;DHT22;11746;50.876;4.246;2023-01-23T03:56:10;2.60;99.90
23156;DHT22;11746;50.876;4.246;2023-01-23T03:58:38;2.60;99.90
23156;DHT22;11746;50.876;4.246;2023-01-23T04:01:06;2.60;99.90
23156;DHT22;11746;50.876;4.246;2023-01-23T04:03:34;2.50;99.90
23156;DHT22;11746;50.876;4.246;2023-01-23T04:06:01;2.50;99.90
23156;DHT22;11746;50.876;4.246;2023-01-23T04:08:26;2.70;99.90
23156;DHT22;11746;50.876;4.246;2023-01-23T04:11:13;2.70;99.90
23156;DHT22;11746;50.876;4.246;2023-01-23T04:13:42;2.60;99.90
23156;DHT22;11746;50.876;4.246;2023-01-23T04:16:08;2.60;99.90
23156;DHT22;11746;50.876;4.246;2023-01-23T04:18:37;2.50;99.90
23156;DHT22;11746;50.876;4.246;2023-01-23T04:21:03;2.60;99.90
23156;DHT22;11746;50.876;4.246;2023-01-23T04:23:29;2.60;99.90
23156;DHT22;11746;50.876;4.246;2023-01-23T04:25:55;2.60;99.90
23156;DHT22;11746;50.876;4.246;2023-01-23T04:28:24;2.70;99.90
23156;DHT22;11746;50.876;4.246;2023-01-23T04:30:53;2.70;99.90
23156;DHT22;11746;50.876;4.246;2023-01-23T04:33:19;2.70;99.90
23156;DHT22;11746;50.876;4.246;2023-01-23T04:36:05;2.70;99.90
23156;DHT22;11746;50.876;4.246;2023-01-23T04:38:34;2.70;99.90
23156;DHT22;11746;50.876;4.246;2023-01-23T04:41:00;2.80;99.90
23156;DHT22;11746;50.876;4.246;2023-01-23T04:43:26;2.90;99.90
23156;DHT22;11746;50.876;4.246;2023-01-23T04:45:53;2.90;99.90
23156;DHT22;11746;50.876;4.246;2023-01-23T04:48:19;2.90;99.90
23156;DHT22;11746;50.876;4.246;2023-01-23T04:50:45;2.80;99.90
23156;DHT22;11746;50.876;4.246;2023-01-23T04:53:11;2.90;99.90
23156;DHT22;11746;50.876;4.246;2023-01-23T04:55:38;2.90;99.90
23156;DHT22;11746;50.876;4.246;2023-01-23T04:58:04;2.80;99.90
23156;DHT22;11746;50.876;4.246;2023-01-23T05:00:30;2.70;99.90
23156;DHT22;11746;50.876;4.246;2023-01-23T05:02:56;2.80;99.90
23156;DHT22;11746;50.876;4.246;2023-01-23T05:05:27;2.70;99.90
23156;DHT22;11746;50.876;4.246;2023-01-23T05:07:52;2.70;99.90
23156;DHT22;11746;50.876;4.246;2023-01-23T05:10:20;2.70;99.90
23156;DHT22;11746;50.876;4.246;2023-01-23T05:12:46;2.70;99.90
23156;DHT22;11746;50.876;4.246;2023-01-23T05:15:15;2.80;99.90
23156;DHT22;11746;50.876;4.246;2023-01-23T05:17:41;2.80;99.90
23156;DHT22;11746;50.876;4.246;2023-01-23T05:20:12;2.80;99.90
23156;DHT22;11746;50.876;4.246;2023-01-23T05:22:38;2.80;99.90
23156;DHT22;11746;50.876;4.246;2023-01-23T05:25:26;2.80;99.90
23156;DHT22;11746;50.876;4.246;2023-01-23T05:27:57;2.80;99.90
23156;DHT22;11746;50.876;4.246;2023-01-23T05:30:24;2.80;99.90
23156;DHT22;11746;50.876;4.246;2023-01-23T05:32:50;2.80;99.90
23156;DHT22;11746;50.876;4.246;2023-01-23T05:35:15;2.80;99.90
23156;DHT22;11746;50.876;4.246;2023-01-23T05:37:41;2.80;99.90
23156;DHT22;11746;50.876;4.246;2023-01-23T05:40:09;2.80;99.90
23156;DHT22;11746;50.876;4.246;2023-01-23T05:42:35;2.80;99.90
23156;DHT22;11746;50.876;4.246;2023-01-23T05:45:01;2.80;99.90
23156;DHT22;11746;50.876;4.246;2023-01-23T05:47:27;2.90;99.90
23156;DHT22;11746;50.876;4.246;2023-01-23T05:49:53;2.90;99.90
23156;DHT22;11746;50.876;4.246;2023-01-23T05:52:19;3.00;99.90
23156;DHT22;11746;50.876;4.246;2023-01-23T05:54:46;3.00;99.90
23156;DHT22;11746;50.876;4.246;2023-01-23T05:57:12;2.90;99.90
23156;DHT22;11746;50.876;4.246;2023-01-23T05:59:40;3.00;99.90
23156;DHT22;11746;50.876;4.246;2023-01-23T06:02:06;3.10;99.90
23156;DHT22;11746;50.876;4.246;2023-01-23T06:04:32;2.90;99.90
23156;DHT22;11746;50.876;4.246;2023-01-23T06:06:58;3.00;99.90
23156;DHT22;11746;50.876;4.246;2023-01-23T06:09:27;3.00;99.90
23156;DHT22;11746;50.876;4.246;2023-01-23T06:11:52;3.00;99.90
23156;DHT22;11746;50.876;4.246;2023-01-23T06:14:18;2.90;99.90
23156;DHT22;11746;50.876;4.246;2023-01-23T06:16:44;2.90;99.90
23156;DHT22;11746;50.876;4.246;2023-01-23T06:19:10;2.90;99.90
23156;DHT22;11746;50.876;4.246;2023-01-23T06:21:36;2.90;99.90
23156;DHT22;11746;50.876;4.246;2023-01-23T06:24:02;3.00;99.90
23156;DHT22;11746;50.876;4.246;2023-01-23T06:26:28;3.00;99.90
23156;DHT22;11746;50.876;4.246;2023-01-23T06:28:54;2.90;99.90
23156;DHT22;11746;50.876;4.246;2023-01-23T06:31:20;2.90;99.90
23156;DHT22;11746;50.876;4.246;2023-01-23T06:33:50;2.80;99.90
23156;DHT22;11746;50.876;4.246;2023-01-23T06:36:16;2.80;99.90
23156;DHT22;11746;50.876;4.246;2023-01-23T06:38:42;2.80;99.90
23156;DHT22;11746;50.876;4.246;2023-01-23T06:41:09;2.80;99.90
23156;DHT22;11746;50.876;4.246;2023-01-23T06:43:35;2.90;99.90
23156;DHT22;11746;50.876;4.246;2023-01-23T06:46:03;2.90;99.90
23156;DHT22;11746;50.876;4.246;2023-01-23T06:48:28;2.90;99.90
23156;DHT22;11746;50.876;4.246;2023-01-23T06:50:59;2.90;99.90
23156;DHT22;11746;50.876;4.246;2023-01-23T06:53:27;3.00;99.90
23156;DHT22;11746;50.876;4.246;2023-01-23T06:55:59;3.00;99.90
23156;DHT22;11746;50.876;4.246;2023-01-23T06:58:27;3.00;99.90
23156;DHT22;11746;50.876;4.246;2023-01-23T07:00:53;3.10;99.90
23156;DHT22;11746;50.876;4.246;2023-01-23T07:03:21;3.10;99.90
23156;DHT22;11746;50.876;4.246;2023-01-23T07:05:47;3.10;99.90
23156;DHT22;11746;50.876;4.246;2023-01-23T07:08:15;3.00;99.90
23156;DHT22;11746;50.876;4.246;2023-01-23T07:10:41;3.10;99.90
23156;DHT22;11746;50.876;4.246;2023-01-23T07:13:09;3.10;99.90
23156;DHT22;11746;50.876;4.246;2023-01-23T07:15:36;3.00;99.90
23156;DHT22;11746;50.876;4.246;2023-01-23T07:18:02;3.10;99.90
23156;DHT22;11746;50.876;4.246;2023-01-23T07:20:28;3.10;99.90
23156;DHT22;11746;50.876;4.246;2023-01-23T07:22:54;3.00;99.90
23156;DHT22;11746;50.876;4.246;2023-01-23T07:25:20;2.90;99.90
23156;DHT22;11746;50.876;4.246;2023-01-23T07:27:49;2.90;99.90
23156;DHT22;11746;50.876;4.246;2023-01-23T07:30:15;2.90;99.90
23156;DHT22;11746;50.876;4.246;2023-01-23T07:32:42;2.80;99.90
23156;DHT22;11746;50.876;4.246;2023-01-23T07:35:09;2.90;99.90
23156;DHT22;11746;50.876;4.246;2023-01-23T07:37:35;2.80;99.90
23156;DHT22;11746;50.876;4.246;2023-01-23T07:40:01;2.80;99.90
23156;DHT22;11746;50.876;4.246;2023-01-23T07:42:27;2.90;99.90
23156;DHT22;11746;50.876;4.246;2023-01-23T07:44:53;3.00;99.90
23156;DHT22;11746;50.876;4.246;2023-01-23T07:47:19;3.00;99.90
23156;DHT22;11746;50.876;4.246;2023-01-23T07:49:47;2.90;99.90
23156;DHT22;11746;50.876;4.246;2023-01-23T07:52:13;3.00;99.90
23156;DHT22;11746;50.876;4.246;2023-01-23T07:54:39;2.90;99.90
23156;DHT22;11746;50.876;4.246;2023-01-23T07:57:04;2.90;99.90
23156;DHT22;11746;50.876;4.246;2023-01-23T07:59:30;3.00;99.90
23156;DHT22;11746;50.876;4.246;2023-01-23T08:01:56;3.10;99.90
23156;DHT22;11746;50.876;4.246;2023-01-23T08:04:22;3.10;99.90
23156;DHT22;11746;50.876;4.246;2023-01-23T08:06:48;3.10;99.90
23156;DHT22;11746;50.876;4.246;2023-01-23T08:09:13;3.20;99.90
23156;DHT22;11746;50.876;4.246;2023-01-23T08:11:40;3.10;99.90
23156;DHT22;11746;50.876;4.246;2023-01-23T08:14:08;3.10;99.90
23156;DHT22;11746;50.876;4.246;2023-01-23T08:16:36;3.10;99.90
23156;DHT22;11746;50.876;4.246;2023-01-23T08:19:05;3.10;99.90
23156;DHT22;11746;50.876;4.246;2023-01-23T08:21:31;3.20;99.90
23156;DHT22;11746;50.876;4.246;2023-01-23T08:24:00;3.20;99.90
23156;DHT22;11746;50.876;4.246;2023-01-23T08:26:26;3.20;99.90
23156;DHT22;11746;50.876;4.246;2023-01-23T08:28:54;3.30;99.90
23156;DHT22;11746;50.876;4.246;2023-01-23T08:31:21;3.30;99.90
23156;DHT22;11746;50.876;4.246;2023-01-23T08:33:46;3.30;99.90
23156;DHT22;11746;50.876;4.246;2023-01-23T08:36:12;3.40;99.90
23156;DHT22;11746;50.876;4.246;2023-01-23T08:38:39;3.40;99.90
23156;DHT22;11746;50.876;4.246;2023-01-23T08:41:05;3.30;99.90
23156;DHT22;11746;50.876;4.246;2023-01-23T08:43:31;3.30;99.90
23156;DHT22;11746;50.876;4.246;2023-01-23T08:46:00;3.50;99.90
23156;DHT22;11746;50.876;4.246;2023-01-23T08:48:28;3.40;99.90
23156;DHT22;11746;50.876;4.246;2023-01-23T08:50:59;3.40;99.90
23156;DHT22;11746;50.876;4.246;2023-01-23T08:53:28;3.40;99.90
23156;DHT22;11746;50.876;4.246;2023-01-23T08:55:58;3.40;99.90
23156;DHT22;11746;50.876;4.246;2023-01-23T08:58:25;3.50;99.90
23156;DHT22;11746;50.876;4.246;2023-01-23T09:00:53;3.60;99.90
23156;DHT22;11746;50.876;4.246;2023-01-23T09:03:20;3.60;99.90
23156;DHT22;11746;50.876;4.246;2023-01-23T09:05:46;3.50;99.90
23156;DHT22;11746;50.876;4.246;2023-01-23T09:08:12;3.50;99.90
23156;DHT22;11746;50.876;4.246;2023-01-23T09:10:39;3.60;99.90
23156;DHT22;11746;50.876;4.246;2023-01-23T09:13:05;3.60;99.90
23156;DHT22;11746;50.876;4.246;2023-01-23T09:15:36;3.60;99.90
23156;DHT22;11746;50.876;4.246;2023-01-23T09:18:04;3.50;99.90
23156;DHT22;11746;50.876;4.246;2023-01-23T09:20:32;3.60;99.90
23156;DHT22;11746;50.876;4.246;2023-01-23T09:23:01;3.60;99.90
23156;DHT22;11746;50.876;4.246;2023-01-23T09:25:27;3.60;99.90
23156;DHT22;11746;50.876;4.246;2023-01-23T09:27:55;3.70;99.90
23156;DHT22;11746;50.876;4.246;2023-01-23T09:30:21;3.60;99.90
23156;DHT22;11746;50.876;4.246;2023-01-23T09:32:49;3.70;99.90
23156;DHT22;11746;50.876;4.246;2023-01-23T09:35:15;3.70;99.90
23156;DHT22;11746;50.876;4.246;2023-01-23T09:37:41;3.70;99.90
23156;DHT22;11746;50.876;4.246;2023-01-23T09:43:20;3.70;99.90
23156;DHT22;11746;50.876;4.246;2023-01-23T09:46:25;3.60;99.90
23156;DHT22;11746;50.876;4.246;2023-01-23T09:49:20;3.70;99.90
23156;DHT22;11746;50.876;4.246;2023-01-23T09:52:01;3.70;99.90
23156;DHT22;11746;50.876;4.246;2023-01-23T09:57:10;3.70;99.90
23156;DHT22;11746;50.876;4.246;2023-01-23T09:59:38;3.90;99.90
23156;DHT22;11746;50.876;4.246;2023-01-23T10:02:31;4.00;99.90
23156;DHT22;11746;50.876;4.246;2023-01-23T10:04:59;4.00;99.90
23156;DHT22;11746;50.876;4.246;2023-01-23T10:18:17;4.00;99.90
23156;DHT22;11746;50.876;4.246;2023-01-23T10:26:30;4.10;99.90
23156;DHT22;11746;50.876;4.246;2023-01-23T10:29:29;4.10;99.90
23156;DHT22;11746;50.876;4.246;2023-01-23T10:31:57;4.00;99.90
23156;DHT22;11746;50.876;4.246;2023-01-23T10:34:39;4.10;99.90
23156;DHT22;11746;50.876;4.246;2023-01-23T10:37:55;4.10;99.90
23156;DHT22;11746;50.876;4.246;2023-01-23T10:40:27;4.30;99.90
23156;DHT22;11746;50.876;4.246;2023-01-23T10:43:17;4.10;99.90
23156;DHT22;11746;50.876;4.246;2023-01-23T10:45:45;4.10;99.90
23156;DHT22;11746;50.876;4.246;2023-01-23T10:50:51;4.10;99.90
23156;DHT22;11746;50.876;4.246;2023-01-23T10:53:19;4.10;99.90
23156;DHT22;11746;50.876;4.246;2023-01-23T10:55:46;4.20;99.90
23156;DHT22;11746;50.876;4.246;2023-01-23T10:58:41;4.20;99.90
23156;DHT22;11746;50.876;4.246;2023-01-23T11:01:29;4.20;99.90
23156;DHT22;11746;50.876;4.246;2023-01-23T11:03:56;4.30;99.90
23156;DHT22;11746;50.876;4.246;2023-01-23T11:06:25;4.40;99.90
23156;DHT22;11746;50.876;4.246;2023-01-23T11:08:57;4.40;99.90
23156;DHT22;11746;50.876;4.246;2023-01-23T11:11:26;4.30;99.90
23156;DHT22;11746;50.876;4.246;2023-01-23T11:14:08;4.40;99.90
23156;DHT22;11746;50.876;4.246;2023-01-23T11:16:35;4.40;99.90
23156;DHT22;11746;50.876;4.246;2023-01-23T11:24:31;4.60;99.90
23156;DHT22;11746;50.876;4.246;2023-01-23T11:27:16;4.60;99.90
23156;DHT22;11746;50.876;4.246;2023-01-23T11:30:18;4.60;99.90
23156;DHT22;11746;50.876;4.246;2023-01-23T11:32:57;4.60;99.90
23156;DHT22;11746;50.876;4.246;2023-01-23T11:38:16;4.60;99.90
23156;DHT22;11746;50.876;4.246;2023-01-23T11:40:43;4.70;99.90
23156;DHT22;11746;50.876;4.246;2023-01-23T11:43:13;4.70;99.90
23156;DHT22;11746;50.876;4.246;2023-01-23T11:45:53;4.70;99.90
23156;DHT22;11746;50.876;4.246;2023-01-23T11:51:46;4.70;99.90
23156;DHT22;11746;50.876;4.246;2023-01-23T12:05:31;4.60;99.90
23156;DHT22;11746;50.876;4.246;2023-01-23T12:08:26;4.60;99.90
23156;DHT22;11746;50.876;4.246;2023-01-23T12:11:14;4.50;99.90
23156;DHT22;11746;50.876;4.246;2023-01-23T12:16:31;4.50;99.90
23156;DHT22;11746;50.876;4.246;2023-01-23T12:21:36;4.60;99.90
23156;DHT22;11746;50.876;4.246;2023-01-23T12:32:33;4.60;99.90
23156;DHT22;11746;50.876;4.246;2023-01-23T12:38:14;4.70;99.90
23156;DHT22;11746;50.876;4.246;2023-01-23T12:44:05;4.60;99.90
23156;DHT22;11746;50.876;4.246;2023-01-23T12:51:42;4.40;99.90
23156;DHT22;11746;50.876;4.246;2023-01-23T12:54:17;4.50;99.90
23156;DHT22;11746;50.876;4.246;2023-01-23T12:56:48;4.50;99.90
23156;DHT22;11746;50.876;4.246;2023-01-23T13:07:08;4.60;99.90
23156;DHT22;11746;50.876;4.246;2023-01-23T13:09:45;4.60;99.90
23156;DHT22;11746;50.876;4.246;2023-01-23T13:14:51;4.70;99.90
23156;DHT22;11746;50.876;4.246;2023-01-23T13:17:37;4.70;99.90
23156;DHT22;11746;50.876;4.246;2023-01-23T13:20:32;4.70;99.90
23156;DHT22;11746;50.876;4.246;2023-01-23T13:23:25;4.60;99.90
23156;DHT22;11746;50.876;4.246;2023-01-23T13:26:11;4.60;99.90
23156;DHT22;11746;50.876;4.246;2023-01-23T13:28:43;4.50;99.90
23156;DHT22;11746;50.876;4.246;2023-01-23T13:31:37;4.60;99.90
23156;DHT22;11746;50.876;4.246;2023-01-23T13:37:58;4.50;99.90
23156;DHT22;11746;50.876;4.246;2023-01-23T13:42:36;4.50;99.90
23156;DHT22;11746;50.876;4.246;2023-01-23T13:45:24;4.40;99.90
23156;DHT22;11746;50.876;4.246;2023-01-23T13:48:14;4.40;99.90
23156;DHT22;11746;50.876;4.246;2023-01-23T13:51:20;4.40;99.90
23156;DHT22;11746;50.876;4.246;2023-01-23T13:53:49;4.40;99.90
23156;DHT22;11746;50.876;4.246;2023-01-23T13:56:35;4.40;99.90
23156;DHT22;11746;50.876;4.246;2023-01-23T13:59:33;4.30;99.90
23156;DHT22;11746;50.876;4.246;2023-01-23T14:03:21;4.30;99.90
23156;DHT22;11746;50.876;4.246;2023-01-23T14:05:32;4.50;99.90
23156;DHT22;11746;50.876;4.246;2023-01-23T14:08:04;4.50;99.90
23156;DHT22;11746;50.876;4.246;2023-01-23T14:10:35;4.50;99.90
23156;DHT22;11746;50.876;4.246;2023-01-23T14:13:17;4.30;99.90
23156;DHT22;11746;50.876;4.246;2023-01-23T14:15:53;4.30;99.90
23156;DHT22;11746;50.876;4.246;2023-01-23T14:21:29;4.50;99.90
23156;DHT22;11746;50.876;4.246;2023-01-23T14:23:57;4.50;99.90
23156;DHT22;11746;50.876;4.246;2023-01-23T14:26:28;4.50;99.90
23156;DHT22;11746;50.876;4.246;2023-01-23T14:29:01;4.50;99.90
23156;DHT22;11746;50.876;4.246;2023-01-23T14:31:29;4.50;99.90
23156;DHT22;11746;50.876;4.246;2023-01-23T14:34:05;4.50;99.90
23156;DHT22;11746;50.876;4.246;2023-01-23T14:36:34;4.50;99.90
23156;DHT22;11746;50.876;4.246;2023-01-23T14:39:01;4.60;99.90
23156;DHT22;11746;50.876;4.246;2023-01-23T14:41:33;4.60;99.90
23156;DHT22;11746;50.876;4.246;2023-01-23T14:44:03;4.60;99.90
23156;DHT22;11746;50.876;4.246;2023-01-23T14:46:37;4.60;99.90
23156;DHT22;11746;50.876;4.246;2023-01-23T14:49:06;4.60;99.90
23156;DHT22;11746;50.876;4.246;2023-01-23T14:51:34;4.50;99.90
23156;DHT22;11746;50.876;4.246;2023-01-23T14:54:14;4.60;99.90
23156;DHT22;11746;50.876;4.246;2023-01-23T14:56:41;4.60;99.90
23156;DHT22;11746;50.876;4.246;2023-01-23T14:59:30;4.60;99.90
23156;DHT22;11746;50.876;4.246;2023-01-23T15:02:02;4.50;99.90
23156;DHT22;11746;50.876;4.246;2023-01-23T15:04:31;4.50;99.90
23156;DHT22;11746;50.876;4.246;2023-01-23T15:07:01;4.40;99.90
23156;DHT22;11746;50.876;4.246;2023-01-23T15:09:30;4.50;99.90
23156;DHT22;11746;50.876;4.246;2023-01-23T15:12:06;4.50;99.90
23156;DHT22;11746;50.876;4.246;2023-01-23T15:14:38;4.50;99.90
23156;DHT22;11746;50.876;4.246;2023-01-23T15:17:20;4.40;99.90
23156;DHT22;11746;50.876;4.246;2023-01-23T15:19:53;4.30;99.90
23156;DHT22;11746;50.876;4.246;2023-01-23T15:22:29;4.30;99.90
23156;DHT22;11746;50.876;4.246;2023-01-23T15:25:24;4.40;99.90
23156;DHT22;11746;50.876;4.246;2023-01-23T15:27:53;4.50;99.90
23156;DHT22;11746;50.876;4.246;2023-01-23T15:30:44;4.40;99.90
23156;DHT22;11746;50.876;4.246;2023-01-23T15:33:28;4.40;99.90
23156;DHT22;11746;50.876;4.246;2023-01-23T15:36:06;4.40;99.90
23156;DHT22;11746;50.876;4.246;2023-01-23T15:38:32;4.50;99.90
23156;DHT22;11746;50.876;4.246;2023-01-23T15:41:07;4.60;99.90
23156;DHT22;11746;50.876;4.246;2023-01-23T15:43:33;4.50;99.90
23156;DHT22;11746;50.876;4.246;2023-01-23T15:46:01;4.50;99.90
23156;DHT22;11746;50.876;4.246;2023-01-23T15:48:27;4.50;99.90
23156;DHT22;11746;50.876;4.246;2023-01-23T15:50:56;4.50;99.90
23156;DHT22;11746;50.876;4.246;2023-01-23T15:53:23;4.40;99.90
23156;DHT22;11746;50.876;4.246;2023-01-23T15:55:49;4.30;99.90
23156;DHT22;11746;50.876;4.246;2023-01-23T15:58:15;4.20;99.90
23156;DHT22;11746;50.876;4.246;2023-01-23T16:00:41;4.10;99.90
23156;DHT22;11746;50.876;4.246;2023-01-23T16:03:10;4.20;99.90
23156;DHT22;11746;50.876;4.246;2023-01-23T16:05:39;4.20;99.90
23156;DHT22;11746;50.876;4.246;2023-01-23T16:08:15;4.10;99.90
23156;DHT22;11746;50.876;4.246;2023-01-23T16:10:45;4.20;99.90
23156;DHT22;11746;50.876;4.246;2023-01-23T16:13:12;4.20;99.90
23156;DHT22;11746;50.876;4.246;2023-01-23T16:15:42;4.20;99.90
23156;DHT22;11746;50.876;4.246;2023-01-23T16:18:08;4.10;99.90
23156;DHT22;11746;50.876;4.246;2023-01-23T16:20:40;4.10;99.90
23156;DHT22;11746;50.876;4.246;2023-01-23T16:23:17;4.00;99.90
23156;DHT22;11746;50.876;4.246;2023-01-23T16:25:47;4.00;99.90
23156;DHT22;11746;50.876;4.246;2023-01-23T16:28:17;4.00;99.90
23156;DHT22;11746;50.876;4.246;2023-01-23T16:30:43;4.10;99.90
23156;DHT22;11746;50.876;4.246;2023-01-23T16:33:10;4.10;99.90
23156;DHT22;11746;50.876;4.246;2023-01-23T16:35:39;4.10;99.90
23156;DHT22;11746;50.876;4.246;2023-01-23T16:38:26;4.10;99.90
23156;DHT22;11746;50.876;4.246;2023-01-23T16:40:52;4.10;99.90
23156;DHT22;11746;50.876;4.246;2023-01-23T16:43:19;4.10;99.90
23156;DHT22;11746;50.876;4.246;2023-01-23T16:45:48;4.20;99.90
23156;DHT22;11746;50.876;4.246;2023-01-23T16:48:14;4.10;99.90
23156;DHT22;11746;50.876;4.246;2023-01-23T16:50:46;4.20;99.90
23156;DHT22;11746;50.876;4.246;2023-01-23T16:53:26;4.20;99.90
23156;DHT22;11746;50.876;4.246;2023-01-23T16:55:55;4.10;99.90
23156;DHT22;11746;50.876;4.246;2023-01-23T16:58:24;4.20;99.90
23156;DHT22;11746;50.876;4.246;2023-01-23T17:01:01;4.20;99.90
23156;DHT22;11746;50.876;4.246;2023-01-23T17:03:34;4.20;99.90
23156;DHT22;11746;50.876;4.246;2023-01-23T17:06:02;4.10;99.90
23156;DHT22;11746;50.876;4.246;2023-01-23T17:08:28;4.00;99.90
23156;DHT22;11746;50.876;4.246;2023-01-23T17:10:57;4.00;99.90
23156;DHT22;11746;50.876;4.246;2023-01-23T17:13:23;4.00;99.90
23156;DHT22;11746;50.876;4.246;2023-01-23T17:15:52;4.00;99.90
23156;DHT22;11746;50.876;4.246;2023-01-23T17:18:26;4.00;99.90
23156;DHT22;11746;50.876;4.246;2023-01-23T17:20:52;3.90;99.90
23156;DHT22;11746;50.876;4.246;2023-01-23T17:23:22;3.80;99.90
23156;DHT22;11746;50.876;4.246;2023-01-23T17:25:51;3.70;99.90
23156;DHT22;11746;50.876;4.246;2023-01-23T17:28:19;3.80;99.90
23156;DHT22;11746;50.876;4.246;2023-01-23T17:30:51;3.80;99.90
23156;DHT22;11746;50.876;4.246;2023-01-23T17:33:23;3.70;99.90
23156;DHT22;11746;50.876;4.246;2023-01-23T17:35:51;3.70;99.90
23156;DHT22;11746;50.876;4.246;2023-01-23T17:38:21;3.70;99.90
23156;DHT22;11746;50.876;4.246;2023-01-23T17:40:50;3.80;99.90
23156;DHT22;11746;50.876;4.246;2023-01-23T17:43:19;3.70;99.90
23156;DHT22;11746;50.876;4.246;2023-01-23T17:45:46;3.70;99.90